sensor_id;sensor_type;location;lat;lon;timestamp;pressure;altitude;pressure_sealevel;temperature;humidity
62126;BME280;48112;53.282;6.150;2023-03-14T00:00:20;98679.59;;;17.84;53.11
62126;BME280;48112;53.282;6.150;2023-03-14T00:01:24;98667.94;;;17.83;53.53
62126;BME280;48112;53.282;6.150;2023-03-14T00:02:26;98668.66;;;17.84;53.33
62126;BME280;48112;53.282;6.150;2023-03-14T00:03:30;98667.16;;;17.83;53.14
62126;BME280;48112;53.282;6.150;2023-03-14T00:04:31;98672.16;;;17.84;53.43
62126;BME280;48112;53.282;6.150;2023-03-14T00:05:36;98657.75;;;17.84;53.25
62126;BME280;48112;53.282;6.150;2023-03-14T00:06:38;98663.66;;;17.82;53.20
62126;BME280;48112;53.282;6.150;2023-03-14T00:07:41;98664.44;;;17.83;53.27
62126;BME280;48112;53.282;6.150;2023-03-14T00:08:44;98653.06;;;17.84;53.21
62126;BME280;48112;53.282;6.150;2023-03-14T00:09:47;98645.31;;;17.83;53.16
62126;BME280;48112;53.282;6.150;2023-03-14T00:10:49;98647.28;;;17.82;53.34
62126;BME280;48112;53.282;6.150;2023-03-14T00:11:52;98653.50;;;17.83;53.42
62126;BME280;48112;53.282;6.150;2023-03-14T00:12:54;98652.28;;;17.84;53.11
62126;BME280;48112;53.282;6.150;2023-03-14T00:13:57;98657.00;;;17.83;53.30
62126;BME280;48112;53.282;6.150;2023-03-14T00:15:00;98652.72;;;17.82;53.34
62126;BME280;48112;53.282;6.150;2023-03-14T00:16:06;98660.47;;;17.84;53.38
62126;BME280;48112;53.282;6.150;2023-03-14T00:17:09;98654.72;;;17.82;53.15
62126;BME280;48112;53.282;6.150;2023-03-14T00:18:11;98652.28;;;17.84;52.95
62126;BME280;48112;53.282;6.150;2023-03-14T00:19:13;98648.03;;;17.83;53.23
62126;BME280;48112;53.282;6.150;2023-03-14T00:20:16;98659.75;;;17.83;53.24
62126;BME280;48112;53.282;6.150;2023-03-14T00:21:20;98647.59;;;17.84;53.04
62126;BME280;48112;53.282;6.150;2023-03-14T00:22:23;98650.00;;;17.82;53.37
62126;BME280;48112;53.282;6.150;2023-03-14T00:23:25;98644.53;;;17.82;53.21
62126;BME280;48112;53.282;6.150;2023-03-14T00:24:27;98650.78;;;17.83;53.33
62126;BME280;48112;53.282;6.150;2023-03-14T00:25:30;98648.03;;;17.83;53.17
62126;BME280;48112;53.282;6.150;2023-03-14T00:26:33;98650.78;;;17.83;53.16
62126;BME280;48112;53.282;6.150;2023-03-14T00:27:34;98660.19;;;17.82;53.41
62126;BME280;48112;53.282;6.150;2023-03-14T00:28:39;98650.00;;;17.82;53.19
62126;BME280;48112;53.282;6.150;2023-03-14T00:29:43;98652.44;;;17.80;53.32
62126;BME280;48112;53.282;6.150;2023-03-14T00:30:46;98644.53;;;17.82;53.23
62126;BME280;48112;53.282;6.150;2023-03-14T00:31:48;98655.47;;;17.82;53.30
62126;BME280;48112;53.282;6.150;2023-03-14T00:32:51;98654.72;;;17.82;53.17
62126;BME280;48112;53.282;6.150;2023-03-14T00:33:53;98656.25;;;17.83;53.33
62126;BME280;48112;53.282;6.150;2023-03-14T00:34:56;98649.25;;;17.82;53.32
62126;BME280;48112;53.282;6.150;2023-03-14T00:36:02;98648.50;;;17.81;53.21
62126;BME280;48112;53.282;6.150;2023-03-14T00:37:07;98655.47;;;17.82;53.02
62126;BME280;48112;53.282;6.150;2023-03-14T00:38:09;98650.44;;;17.81;53.20
62126;BME280;48112;53.282;6.150;2023-03-14T00:39:12;98652.00;;;17.82;53.49
62126;BME280;48112;53.282;6.150;2023-03-14T00:40:15;98658.97;;;17.83;53.20
62126;BME280;48112;53.282;6.150;2023-03-14T00:41:19;98654.28;;;17.83;52.99
62126;BME280;48112;53.282;6.150;2023-03-14T00:42:23;98649.25;;;17.82;52.96
62126;BME280;48112;53.282;6.150;2023-03-14T00:43:25;98654.72;;;17.82;53.30
62126;BME280;48112;53.282;6.150;2023-03-14T00:44:29;98656.25;;;17.83;53.05
62126;BME280;48112;53.282;6.150;2023-03-14T00:45:31;98653.94;;;17.81;53.19
62126;BME280;48112;53.282;6.150;2023-03-14T00:46:34;98658.97;;;17.83;52.99
62126;BME280;48112;53.282;6.150;2023-03-14T00:47:36;98655.47;;;17.82;52.98
62126;BME280;48112;53.282;6.150;2023-03-14T00:48:39;98652.72;;;17.82;53.19
62126;BME280;48112;53.282;6.150;2023-03-14T00:49:41;98643.81;;;17.82;53.13
62126;BME280;48112;53.282;6.150;2023-03-14T00:50:46;98664.88;;;17.81;53.14
62126;BME280;48112;53.282;6.150;2023-03-14T00:51:49;98660.94;;;17.82;53.14
62126;BME280;48112;53.282;6.150;2023-03-14T00:52:54;98653.50;;;17.83;53.20
62126;BME280;48112;53.282;6.150;2023-03-14T00:53:56;98650.44;;;17.81;53.33
62126;BME280;48112;53.282;6.150;2023-03-14T00:54:59;98660.94;;;17.82;53.23
62126;BME280;48112;53.282;6.150;2023-03-14T00:56:02;98656.25;;;17.83;53.04
62126;BME280;48112;53.282;6.150;2023-03-14T00:57:05;98661.69;;;17.83;53.21
62126;BME280;48112;53.282;6.150;2023-03-14T00:58:07;98660.19;;;17.82;53.25
62126;BME280;48112;53.282;6.150;2023-03-14T00:59:10;98661.06;;;17.79;53.25
62126;BME280;48112;53.282;6.150;2023-03-14T01:00:13;98671.09;;;17.82;53.09
62126;BME280;48112;53.282;6.150;2023-03-14T01:01:18;98678.06;;;17.83;53.31
62126;BME280;48112;53.282;6.150;2023-03-14T01:02:20;98665.63;;;17.82;53.13
62126;BME280;48112;53.282;6.150;2023-03-14T01:03:23;98656.78;;;17.78;53.21
62126;BME280;48112;53.282;6.150;2023-03-14T01:04:26;98663.34;;;17.80;53.03
62126;BME280;48112;53.282;6.150;2023-03-14T01:05:30;98664.09;;;17.81;53.16
62126;BME280;48112;53.282;6.150;2023-03-14T01:06:32;98650.78;;;17.83;53.31
62126;BME280;48112;53.282;6.150;2023-03-14T01:07:35;98656.69;;;17.81;53.15
62126;BME280;48112;53.282;6.150;2023-03-14T01:08:41;98650.78;;;17.83;53.18
62126;BME280;48112;53.282;6.150;2023-03-14T01:09:44;98647.72;;;17.81;53.22
62126;BME280;48112;53.282;6.150;2023-03-14T01:10:47;98643.03;;;17.81;53.10
62126;BME280;48112;53.282;6.150;2023-03-14T01:11:49;98652.00;;;17.82;53.15
62126;BME280;48112;53.282;6.150;2023-03-14T01:12:52;98643.81;;;17.82;53.16
62126;BME280;48112;53.282;6.150;2023-03-14T01:13:54;98643.81;;;17.82;53.15
62126;BME280;48112;53.282;6.150;2023-03-14T01:14:58;98648.50;;;17.81;52.97
62126;BME280;48112;53.282;6.150;2023-03-14T01:16:02;98650.78;;;17.83;52.85
62126;BME280;48112;53.282;6.150;2023-03-14T01:17:05;98642.25;;;17.81;53.26
62126;BME280;48112;53.282;6.150;2023-03-14T01:18:07;98648.50;;;17.81;53.10
62126;BME280;48112;53.282;6.150;2023-03-14T01:19:10;98648.50;;;17.81;53.16
62126;BME280;48112;53.282;6.150;2023-03-14T01:20:14;98641.81;;;17.82;53.01
62126;BME280;48112;53.282;6.150;2023-03-14T01:21:19;98638.34;;;17.82;53.28
62126;BME280;48112;53.282;6.150;2023-03-14T01:22:21;98644.25;;;17.80;53.08
62126;BME280;48112;53.282;6.150;2023-03-14T01:23:24;98653.94;;;17.81;52.89
62126;BME280;48112;53.282;6.150;2023-03-14T01:24:28;98655.47;;;17.82;53.06
62126;BME280;48112;53.282;6.150;2023-03-14T01:25:31;98651.22;;;17.81;53.04
62126;BME280;48112;53.282;6.150;2023-03-14T01:26:34;98657.44;;;17.82;52.90
62126;BME280;48112;53.282;6.150;2023-03-14T01:27:39;98658.63;;;17.81;53.04
62126;BME280;48112;53.282;6.150;2023-03-14T01:28:42;98656.69;;;17.81;53.15
62126;BME280;48112;53.282;6.150;2023-03-14T01:29:45;98652.00;;;17.82;52.81
62126;BME280;48112;53.282;6.150;2023-03-14T01:30:49;98653.19;;;17.81;52.84
62126;BME280;48112;53.282;6.150;2023-03-14T01:31:52;98658.63;;;17.81;52.82
62126;BME280;48112;53.282;6.150;2023-03-14T01:32:54;98653.19;;;17.81;53.06
62126;BME280;48112;53.282;6.150;2023-03-14T01:33:57;98649.25;;;17.82;53.04
62126;BME280;48112;53.282;6.150;2023-03-14T01:34:58;98649.25;;;17.82;52.57
62126;BME280;48112;53.282;6.150;2023-03-14T01:36:03;98643.81;;;17.82;52.90
62126;BME280;48112;53.282;6.150;2023-03-14T01:37:05;98648.50;;;17.81;53.15
62126;BME280;48112;53.282;6.150;2023-03-14T01:38:11;98644.25;;;17.80;53.16
62126;BME280;48112;53.282;6.150;2023-03-14T01:39:13;98645.00;;;17.81;52.77
62126;BME280;48112;53.282;6.150;2023-03-14T01:40:17;98654.72;;;17.82;53.20
62126;BME280;48112;53.282;6.150;2023-03-14T01:41:22;98642.25;;;17.81;52.96
62126;BME280;48112;53.282;6.150;2023-03-14T01:42:26;98651.66;;;17.80;53.14
62126;BME280;48112;53.282;6.150;2023-03-14T01:43:29;98653.19;;;17.81;52.93
62126;BME280;48112;53.282;6.150;2023-03-14T01:44:47;98654.19;;;17.74;53.29
62126;BME280;48112;53.282;6.150;2023-03-14T01:46:25;98647.31;;;17.70;53.02
62126;BME280;48112;53.282;6.150;2023-03-14T01:47:28;98645.25;;;17.74;53.01
62126;BME280;48112;53.282;6.150;2023-03-14T01:48:35;98647.53;;;17.75;52.89
62126;BME280;48112;53.282;6.150;2023-03-14T01:49:37;98645.53;;;17.76;53.45
62126;BME280;48112;53.282;6.150;2023-03-14T01:50:45;98640.84;;;17.76;53.00
62126;BME280;48112;53.282;6.150;2023-03-14T01:51:51;98641.63;;;17.77;53.02
62126;BME280;48112;53.282;6.150;2023-03-14T01:52:56;98640.53;;;17.74;53.18
62126;BME280;48112;53.282;6.150;2023-03-14T01:54:06;98646.31;;;17.76;52.92
62126;BME280;48112;53.282;6.150;2023-03-14T01:55:13;98636.16;;;17.77;52.98
62126;BME280;48112;53.282;6.150;2023-03-14T01:56:18;98635.41;;;17.76;53.24
62126;BME280;48112;53.282;6.150;2023-03-14T01:57:22;98627.66;;;17.75;52.90
62126;BME280;48112;53.282;6.150;2023-03-14T01:58:27;98624.47;;;17.76;53.20
62126;BME280;48112;53.282;6.150;2023-03-14T01:59:32;98626.78;;;17.78;53.08
62126;BME280;48112;53.282;6.150;2023-03-14T02:00:35;98629.94;;;17.76;53.00
62126;BME280;48112;53.282;6.150;2023-03-14T02:01:38;98636.16;;;17.77;53.01
62126;BME280;48112;53.282;6.150;2023-03-14T02:02:48;98618.69;;;17.74;53.07
62126;BME280;48112;53.282;6.150;2023-03-14T02:03:56;98626.13;;;17.74;53.01
62126;BME280;48112;53.282;6.150;2023-03-14T02:05:04;98620.97;;;17.76;52.98
62126;BME280;48112;53.282;6.150;2023-03-14T02:06:10;98630.72;;;17.77;53.11
62126;BME280;48112;53.282;6.150;2023-03-14T02:07:17;98622.63;;;17.73;53.11
62126;BME280;48112;53.282;6.150;2023-03-14T02:08:42;98625.81;;;17.72;53.26
62126;BME280;48112;53.282;6.150;2023-03-14T02:09:55;98619.13;;;17.73;53.12
62126;BME280;48112;53.282;6.150;2023-03-14T02:11:01;98624.59;;;17.73;53.17
62126;BME280;48112;53.282;6.150;2023-03-14T02:12:25;98623.06;;;17.72;53.54
62126;BME280;48112;53.282;6.150;2023-03-14T02:13:44;98618.50;;;17.69;53.19
62126;BME280;48112;53.282;6.150;2023-03-14T02:15:06;98622.41;;;17.68;53.09
62126;BME280;48112;53.282;6.150;2023-03-14T02:16:30;98626.03;;;17.65;53.04
62126;BME280;48112;53.282;6.150;2023-03-14T02:17:51;98635.31;;;17.67;53.35
62126;BME280;48112;53.282;6.150;2023-03-14T02:19:11;98627.56;;;17.66;53.23
62126;BME280;48112;53.282;6.150;2023-03-14T02:20:34;98631.81;;;17.67;53.02
62126;BME280;48112;53.282;6.150;2023-03-14T02:21:47;98626.81;;;17.65;53.20
62126;BME280;48112;53.282;6.150;2023-03-14T02:22:55;98631.81;;;17.67;53.19
62126;BME280;48112;53.282;6.150;2023-03-14T02:24:08;98626.38;;;17.67;53.34
62126;BME280;48112;53.282;6.150;2023-03-14T02:25:24;98628.75;;;17.65;53.20
62126;BME280;48112;53.282;6.150;2023-03-14T02:26:34;98627.13;;;17.67;53.39
62126;BME280;48112;53.282;6.150;2023-03-14T02:27:40;98614.22;;;17.68;53.09
62126;BME280;48112;53.282;6.150;2023-03-14T02:28:45;98619.69;;;17.68;53.26
62126;BME280;48112;53.282;6.150;2023-03-14T02:29:50;98623.53;;;17.70;53.14
62126;BME280;48112;53.282;6.150;2023-03-14T02:30:55;98616.09;;;17.71;53.27
62126;BME280;48112;53.282;6.150;2023-03-14T02:31:57;98616.09;;;17.71;53.27
62126;BME280;48112;53.282;6.150;2023-03-14T02:33:03;98617.63;;;17.72;52.94
62126;BME280;48112;53.282;6.150;2023-03-14T02:34:06;98601.25;;;17.72;53.10
62126;BME280;48112;53.282;6.150;2023-03-14T02:35:13;98619.13;;;17.73;52.93
62126;BME280;48112;53.282;6.150;2023-03-14T02:36:17;98609.44;;;17.72;53.13
62126;BME280;48112;53.282;6.150;2023-03-14T02:37:24;98612.94;;;17.72;52.76
62126;BME280;48112;53.282;6.150;2023-03-14T02:38:31;98616.84;;;17.71;53.01
62126;BME280;48112;53.282;6.150;2023-03-14T02:39:40;98601.25;;;17.72;52.94
62126;BME280;48112;53.282;6.150;2023-03-14T02:40:44;98606.69;;;17.72;53.11
62126;BME280;48112;53.282;6.150;2023-03-14T02:41:47;98608.22;;;17.73;52.86
62126;BME280;48112;53.282;6.150;2023-03-14T02:42:52;98602.31;;;17.74;52.97
62126;BME280;48112;53.282;6.150;2023-03-14T02:43:55;98608.22;;;17.73;53.09
62126;BME280;48112;53.282;6.150;2023-03-14T02:45:24;98590.66;;;17.74;52.91
62126;BME280;48112;53.282;6.150;2023-03-14T02:46:25;98600.91;;;17.70;53.14
62126;BME280;48112;53.282;6.150;2023-03-14T02:47:30;98600.47;;;17.71;53.12
62126;BME280;48112;53.282;6.150;2023-03-14T02:48:35;98603.53;;;17.73;52.61
62126;BME280;48112;53.282;6.150;2023-03-14T02:49:40;98605.19;;;17.71;53.10
62126;BME280;48112;53.282;6.150;2023-03-14T02:50:43;98607.47;;;17.72;53.04
62126;BME280;48112;53.282;6.150;2023-03-14T02:51:48;98597.31;;;17.73;53.04
62126;BME280;48112;53.282;6.150;2023-03-14T02:52:50;98603.53;;;17.73;52.67
62126;BME280;48112;53.282;6.150;2023-03-14T02:53:53;98604.31;;;17.74;53.19
62126;BME280;48112;53.282;6.150;2023-03-14T02:54:56;98619.91;;;17.73;53.14
62126;BME280;48112;53.282;6.150;2023-03-14T02:56:00;98597.63;;;17.75;53.01
62126;BME280;48112;53.282;6.150;2023-03-14T02:57:04;98605.81;;;17.75;53.08
62126;BME280;48112;53.282;6.150;2023-03-14T02:58:08;98612.78;;;17.76;52.71
62126;BME280;48112;53.282;6.150;2023-03-14T02:59:10;98605.81;;;17.75;52.83
62126;BME280;48112;53.282;6.150;2023-03-14T03:00:21;98597.31;;;17.73;52.83
62126;BME280;48112;53.282;6.150;2023-03-14T03:01:23;98611.28;;;17.75;52.73
62126;BME280;48112;53.282;6.150;2023-03-14T03:02:26;98607.03;;;17.74;53.00
62126;BME280;48112;53.282;6.150;2023-03-14T03:03:28;98602.03;;;17.72;53.00
62126;BME280;48112;53.282;6.150;2023-03-14T03:04:31;98605.81;;;17.75;53.21
62126;BME280;48112;53.282;6.150;2023-03-14T03:05:34;98605.81;;;17.75;52.76
62126;BME280;48112;53.282;6.150;2023-03-14T03:06:37;98601.13;;;17.75;53.01
62126;BME280;48112;53.282;6.150;2023-03-14T03:07:39;98601.56;;;17.74;52.96
62126;BME280;48112;53.282;6.150;2023-03-14T03:08:44;98597.63;;;17.75;53.14
62126;BME280;48112;53.282;6.150;2023-03-14T03:09:46;98600.34;;;17.75;52.73
62126;BME280;48112;53.282;6.150;2023-03-14T03:10:50;98599.59;;;17.74;52.45
62126;BME280;48112;53.282;6.150;2023-03-14T03:11:52;98604.59;;;17.76;53.09
62126;BME280;48112;53.282;6.150;2023-03-14T03:12:57;98589.44;;;17.75;53.01
62126;BME280;48112;53.282;6.150;2023-03-14T03:14:02;98596.41;;;17.76;52.82
62126;BME280;48112;53.282;6.150;2023-03-14T03:15:06;98608.09;;;17.76;53.19
62126;BME280;48112;53.282;6.150;2023-03-14T03:16:10;98606.59;;;17.75;52.75
62126;BME280;48112;53.282;6.150;2023-03-14T03:17:15;98601.13;;;17.75;52.97
62126;BME280;48112;53.282;6.150;2023-03-14T03:18:18;98595.66;;;17.75;52.83
62126;BME280;48112;53.282;6.150;2023-03-14T03:19:21;98593.38;;;17.74;52.78
62126;BME280;48112;53.282;6.150;2023-03-14T03:20:23;98596.41;;;17.76;52.81
62126;BME280;48112;53.282;6.150;2023-03-14T03:21:26;98595.66;;;17.75;52.80
62126;BME280;48112;53.282;6.150;2023-03-14T03:22:28;98591.72;;;17.76;53.00
62126;BME280;48112;53.282;6.150;2023-03-14T03:23:31;98600.69;;;17.77;52.98
62126;BME280;48112;53.282;6.150;2023-03-14T03:24:34;98599.91;;;17.76;52.97
62126;BME280;48112;53.282;6.150;2023-03-14T03:25:37;98599.91;;;17.76;52.80
62126;BME280;48112;53.282;6.150;2023-03-14T03:26:39;98591.72;;;17.76;52.74
62126;BME280;48112;53.282;6.150;2023-03-14T03:27:44;98594.47;;;17.76;52.67
62126;BME280;48112;53.282;6.150;2023-03-14T03:28:46;98590.97;;;17.76;53.05
62126;BME280;48112;53.282;6.150;2023-03-14T03:29:51;98598.69;;;17.77;52.80
62126;BME280;48112;53.282;6.150;2023-03-14T03:30:53;98602.66;;;17.76;52.90
62126;BME280;48112;53.282;6.150;2023-03-14T03:31:56;98595.22;;;17.77;53.01
62126;BME280;48112;53.282;6.150;2023-03-14T03:32:58;98603.41;;;17.77;53.09
62126;BME280;48112;53.282;6.150;2023-03-14T03:34:02;98603.41;;;17.77;53.19
62126;BME280;48112;53.282;6.150;2023-03-14T03:35:05;98592.50;;;17.77;52.76
62126;BME280;48112;53.282;6.150;2023-03-14T03:36:11;98597.31;;;17.73;53.12
62126;BME280;48112;53.282;6.150;2023-03-14T03:37:14;98602.66;;;17.76;53.05
62126;BME280;48112;53.282;6.150;2023-03-14T03:38:17;98586.25;;;17.76;53.02
62126;BME280;48112;53.282;6.150;2023-03-14T03:39:23;98607.34;;;17.76;52.85
62126;BME280;48112;53.282;6.150;2023-03-14T03:40:26;98598.06;;;17.73;52.96
62126;BME280;48112;53.282;6.150;2023-03-14T03:41:30;98599.91;;;17.76;53.04
62126;BME280;48112;53.282;6.150;2023-03-14T03:42:33;98600.69;;;17.77;52.96
62126;BME280;48112;53.282;6.150;2023-03-14T03:43:36;98597.97;;;17.77;52.91
62126;BME280;48112;53.282;6.150;2023-03-14T03:44:40;98595.22;;;17.77;52.96
62126;BME280;48112;53.282;6.150;2023-03-14T03:45:45;98602.19;;;17.78;52.64
62126;BME280;48112;53.282;6.150;2023-03-14T03:46:48;98592.50;;;17.77;52.94
62126;BME280;48112;53.282;6.150;2023-03-14T03:47:50;98597.97;;;17.77;52.96
62126;BME280;48112;53.282;6.150;2023-03-14T03:48:56;98604.94;;;17.78;52.79
62126;BME280;48112;53.282;6.150;2023-03-14T03:50:00;98599.16;;;17.76;52.89
62126;BME280;48112;53.282;6.150;2023-03-14T03:51:03;98597.19;;;17.76;52.69
62126;BME280;48112;53.282;6.150;2023-03-14T03:52:05;98597.19;;;17.76;52.75
62126;BME280;48112;53.282;6.150;2023-03-14T03:53:08;98608.88;;;17.77;52.79
62126;BME280;48112;53.282;6.150;2023-03-14T03:54:10;98604.16;;;17.77;52.77
62126;BME280;48112;53.282;6.150;2023-03-14T03:55:13;98597.97;;;17.77;52.63
62126;BME280;48112;53.282;6.150;2023-03-14T03:56:16;98604.59;;;17.76;52.95
62126;BME280;48112;53.282;6.150;2023-03-14T03:57:20;98603.41;;;17.77;52.77
62126;BME280;48112;53.282;6.150;2023-03-14T03:58:22;98602.66;;;17.76;52.79
62126;BME280;48112;53.282;6.150;2023-03-14T03:59:25;98598.69;;;17.77;52.81
62126;BME280;48112;53.282;6.150;2023-03-14T04:00:27;98603.41;;;17.77;52.85
62126;BME280;48112;53.282;6.150;2023-03-14T04:01:31;98599.47;;;17.78;52.69
62126;BME280;48112;53.282;6.150;2023-03-14T04:02:34;98603.41;;;17.77;52.81
62126;BME280;48112;53.282;6.150;2023-03-14T04:03:37;98598.69;;;17.77;53.09
62126;BME280;48112;53.282;6.150;2023-03-14T04:04:40;98602.66;;;17.76;52.80
62126;BME280;48112;53.282;6.150;2023-03-14T04:05:43;98603.09;;;17.75;52.67
62126;BME280;48112;53.282;6.150;2023-03-14T04:06:45;98603.41;;;17.77;52.88
62126;BME280;48112;53.282;6.150;2023-03-14T04:07:48;98600.69;;;17.77;52.87
62126;BME280;48112;53.282;6.150;2023-03-14T04:08:56;98597.97;;;17.77;52.96
62126;BME280;48112;53.282;6.150;2023-03-14T04:10:10;98599.59;;;17.74;52.65
62126;BME280;48112;53.282;6.150;2023-03-14T04:11:16;98600.34;;;17.75;52.97
62126;BME280;48112;53.282;6.150;2023-03-14T04:12:40;98600.47;;;17.71;52.80
62126;BME280;48112;53.282;6.150;2023-03-14T04:13:51;98596.56;;;17.72;52.81
62126;BME280;48112;53.282;6.150;2023-03-14T04:14:53;98607.78;;;17.74;52.62
62126;BME280;48112;53.282;6.150;2023-03-14T04:15:56;98594.91;;;17.75;52.86
62126;BME280;48112;53.282;6.150;2023-03-14T04:17:02;98597.63;;;17.75;52.88
62126;BME280;48112;53.282;6.150;2023-03-14T04:18:05;98601.56;;;17.74;52.74
62126;BME280;48112;53.282;6.150;2023-03-14T04:19:07;98593.69;;;17.76;52.82
62126;BME280;48112;53.282;6.150;2023-03-14T04:20:11;98588.22;;;17.76;52.83
62126;BME280;48112;53.282;6.150;2023-03-14T04:21:15;98601.88;;;17.76;52.69
62126;BME280;48112;53.282;6.150;2023-03-14T04:22:22;98598.06;;;17.73;52.65
62126;BME280;48112;53.282;6.150;2023-03-14T04:23:25;98600.34;;;17.75;52.62
62126;BME280;48112;53.282;6.150;2023-03-14T04:24:29;98595.66;;;17.75;53.00
62126;BME280;48112;53.282;6.150;2023-03-14T04:25:32;98599.16;;;17.76;53.08
62126;BME280;48112;53.282;6.150;2023-03-14T04:26:38;98601.88;;;17.76;52.77
62126;BME280;48112;53.282;6.150;2023-03-14T04:27:41;98598.41;;;17.75;53.12
62126;BME280;48112;53.282;6.150;2023-03-14T04:28:52;98598.84;;;17.74;53.00
62126;BME280;48112;53.282;6.150;2023-03-14T04:29:56;98587.94;;;17.74;53.18
62126;BME280;48112;53.282;6.150;2023-03-14T04:31:19;98594.28;;;17.71;52.94
62126;BME280;48112;53.282;6.150;2023-03-14T04:32:25;98582.47;;;17.74;52.81
62126;BME280;48112;53.282;6.150;2023-03-14T04:33:27;98593.38;;;17.74;53.03
62126;BME280;48112;53.282;6.150;2023-03-14T04:34:31;98597.31;;;17.73;52.80
62126;BME280;48112;53.282;6.150;2023-03-14T04:35:34;98580.63;;;17.71;52.98
62126;BME280;48112;53.282;6.150;2023-03-14T04:36:42;98603.53;;;17.73;52.82
62126;BME280;48112;53.282;6.150;2023-03-14T04:37:49;98591.84;;;17.73;52.63
62126;BME280;48112;53.282;6.150;2023-03-14T04:38:54;98596.13;;;17.74;53.10
62126;BME280;48112;53.282;6.150;2023-03-14T04:39:58;98594.56;;;17.73;52.81
62126;BME280;48112;53.282;6.150;2023-03-14T04:41:05;98593.38;;;17.74;52.89
62126;BME280;48112;53.282;6.150;2023-03-14T04:42:09;98584.88;;;17.72;52.81
62126;BME280;48112;53.282;6.150;2023-03-14T04:43:12;98591.84;;;17.73;52.94
62126;BME280;48112;53.282;6.150;2023-03-14T04:44:21;98596.56;;;17.72;53.02
62126;BME280;48112;53.282;6.150;2023-03-14T04:45:26;98590.31;;;17.72;52.85
62126;BME280;48112;53.282;6.150;2023-03-14T04:46:30;98593.06;;;17.72;52.88
62126;BME280;48112;53.282;6.150;2023-03-14T04:47:36;98598.84;;;17.74;52.54
62126;BME280;48112;53.282;6.150;2023-03-14T04:48:38;98597.31;;;17.73;52.72
62126;BME280;48112;53.282;6.150;2023-03-14T04:49:42;98599.59;;;17.74;52.92
62126;BME280;48112;53.282;6.150;2023-03-14T04:50:47;98604.31;;;17.74;53.00
62126;BME280;48112;53.282;6.150;2023-03-14T04:51:50;98598.84;;;17.74;53.07
62126;BME280;48112;53.282;6.150;2023-03-14T04:52:53;98594.13;;;17.74;52.77
62126;BME280;48112;53.282;6.150;2023-03-14T04:53:56;98592.63;;;17.73;52.72
62126;BME280;48112;53.282;6.150;2023-03-14T04:54:58;98604.31;;;17.74;52.65
62126;BME280;48112;53.282;6.150;2023-03-14T04:56:01;98594.91;;;17.75;52.71
62126;BME280;48112;53.282;6.150;2023-03-14T04:57:10;98598.06;;;17.73;52.93
62126;BME280;48112;53.282;6.150;2023-03-14T04:58:14;98594.13;;;17.74;52.91
62126;BME280;48112;53.282;6.150;2023-03-14T04:59:17;98603.09;;;17.75;52.62
62126;BME280;48112;53.282;6.150;2023-03-14T05:00:20;98596.84;;;17.74;52.91
62126;BME280;48112;53.282;6.150;2023-03-14T05:01:35;98584.22;;;17.68;52.96
62126;BME280;48112;53.282;6.150;2023-03-14T05:02:56;98595.47;;;17.70;52.86
62126;BME280;48112;53.282;6.150;2023-03-14T05:04:22;98590.88;;;17.67;53.08
62126;BME280;48112;53.282;6.150;2023-03-14T05:05:45;98604.53;;;17.67;52.99
62126;BME280;48112;53.282;6.150;2023-03-14T05:07:20;98593.72;;;17.63;53.18
62126;BME280;48112;53.282;6.150;2023-03-14T05:08:31;98600.28;;;17.66;52.80
62126;BME280;48112;53.282;6.150;2023-03-14T05:09:46;98589.38;;;17.66;53.07
62126;BME280;48112;53.282;6.150;2023-03-14T05:11:03;98585.88;;;17.65;52.92
62126;BME280;48112;53.282;6.150;2023-03-14T05:12:13;98593.63;;;17.67;52.67
62126;BME280;48112;53.282;6.150;2023-03-14T05:13:27;98592.09;;;17.66;52.78
62126;BME280;48112;53.282;6.150;2023-03-14T05:14:51;98593.72;;;17.63;52.90
62126;BME280;48112;53.282;6.150;2023-03-14T05:16:09;98582.38;;;17.65;53.01
62126;BME280;48112;53.282;6.150;2023-03-14T05:17:35;98597.66;;;17.62;52.97
62126;BME280;48112;53.282;6.150;2023-03-14T05:18:57;98584.81;;;17.63;52.92
62126;BME280;48112;53.282;6.150;2023-03-14T05:20:20;98589.94;;;17.61;52.86
62126;BME280;48112;53.282;6.150;2023-03-14T05:21:32;98586.75;;;17.62;52.94
62126;BME280;48112;53.282;6.150;2023-03-14T05:22:46;98588.28;;;17.63;53.00
62126;BME280;48112;53.282;6.150;2023-03-14T05:24:00;98588.72;;;17.62;52.84
62126;BME280;48112;53.282;6.150;2023-03-14T05:25:21;98590.69;;;17.61;53.24
62126;BME280;48112;53.282;6.150;2023-03-14T05:26:37;98582.06;;;17.63;52.92
62126;BME280;48112;53.282;6.150;2023-03-14T05:27:56;98591.88;;;17.60;53.09
62126;BME280;48112;53.282;6.150;2023-03-14T05:29:12;98595.38;;;17.61;52.96
62126;BME280;48112;53.282;6.150;2023-03-14T05:30:37;98581.41;;;17.59;53.19
62126;BME280;48112;53.282;6.150;2023-03-14T05:32:01;98599.75;;;17.58;53.22
62126;BME280;48112;53.282;6.150;2023-03-14T05:33:26;98590.81;;;17.58;52.83
62126;BME280;48112;53.282;6.150;2023-03-14T05:34:45;98577.50;;;17.60;53.03
62126;BME280;48112;53.282;6.150;2023-03-14T05:36:13;98592.34;;;17.59;53.08
62126;BME280;48112;53.282;6.150;2023-03-14T05:37:16;98600.06;;;17.60;53.10
62126;BME280;48112;53.282;6.150;2023-03-14T05:38:50;98594.72;;;17.57;53.18
62126;BME280;48112;53.282;6.150;2023-03-14T05:40:16;98598.66;;;17.56;53.22
62126;BME280;48112;53.282;6.150;2023-03-14T05:41:39;98599.44;;;17.56;53.06
62126;BME280;48112;53.282;6.150;2023-03-14T05:42:58;98612.31;;;17.56;53.03
62126;BME280;48112;53.282;6.150;2023-03-14T05:44:21;98615.03;;;17.56;53.13
62126;BME280;48112;53.282;6.150;2023-03-14T05:45:44;98613.53;;;17.55;53.31
62126;BME280;48112;53.282;6.150;2023-03-14T05:47:05;98603.34;;;17.55;53.10
62126;BME280;48112;53.282;6.150;2023-03-14T05:48:24;98613.09;;;17.56;53.26
62126;BME280;48112;53.282;6.150;2023-03-14T05:49:41;98613.53;;;17.55;53.16
62126;BME280;48112;53.282;6.150;2023-03-14T05:51:08;98608.06;;;17.55;53.09
62126;BME280;48112;53.282;6.150;2023-03-14T05:52:31;98609.84;;;17.49;53.35
62126;BME280;48112;53.282;6.150;2023-03-14T05:53:49;98642.34;;;17.56;53.16